Time;durP1;ratioP1;P1;durP2;ratioP2;P2;SDS_P1;SDS_P2;PMS_P1;PMS_P2;Temp;Humidity;BMP_temperature;BMP_pressure;BME280_temperature;BME280_humidity;BME280_pressure;Samples;Min_cycle;Max_cycle;Signal;HPM_P1;HPM_P2
2021/01/31 00:00:34;;;;;;;43.45;18.02;;;-3.40;99.90;;;;;;5072740;28;20028;-78
2021/01/31 00:03:05;;;;;;;38.58;18.25;;;-3.40;99.90;;;;;;5071413;28;20098;-78
2021/01/31 00:05:31;;;;;;;40.53;17.15;;;-3.50;99.90;;;;;;5072657;28;20292;-77
2021/01/31 00:07:57;;;;;;;40.05;17.77;;;-3.50;99.90;;;;;;5072555;28;20024;-78
2021/01/31 00:10:29;;;;;;;35.92;17.33;;;-3.50;99.90;;;;;;5054632;28;20020;-78
2021/01/31 00:12:56;;;;;;;31.40;14.63;;;-3.50;99.90;;;;;;5054660;28;20028;-78
2021/01/31 00:15:25;;;;;;;37.75;17.88;;;-3.50;99.90;;;;;;5072565;28;20028;-78
2021/01/31 00:17:51;;;;;;;32.00;15.48;;;-3.60;99.90;;;;;;5073458;28;20021;-78
2021/01/31 00:20:19;;;;;;;35.80;15.65;;;-3.60;99.90;;;;;;5076562;28;20035;-78
2021/01/31 00:22:44;;;;;;;30.55;13.57;;;-3.70;99.90;;;;;;5076565;28;20025;-78
2021/01/31 00:25:12;;;;;;;28.90;14.32;;;-3.70;99.90;;;;;;5075364;28;20032;-78
2021/01/31 00:27:38;;;;;;;26.35;14.77;;;-3.70;99.90;;;;;;5074981;28;20032;-78
2021/01/31 00:30:17;;;;;;;30.92;13.05;;;-3.80;99.90;;;;;;5076422;28;20023;-78
2021/01/31 00:32:43;;;;;;;20.90;13.57;;;-3.80;99.90;;;;;;5058117;28;20497;-78
2021/01/31 00:35:09;;;;;;;28.75;11.73;;;-3.90;99.90;;;;;;5075058;28;20110;-78
2021/01/31 00:37:35;;;;;;;26.83;14.18;;;-3.90;99.90;;;;;;5076181;28;20046;-78
2021/01/31 00:40:01;;;;;;;27.33;13.18;;;-4.00;99.90;;;;;;5076110;28;20024;-78
2021/01/31 00:42:27;;;;;;;30.33;12.88;;;-4.00;99.90;;;;;;5076215;28;20031;-78
2021/01/31 00:44:53;;;;;;;33.88;14.50;;;-4.00;99.90;;;;;;5076006;28;20458;-78
2021/01/31 00:47:21;;;;;;;27.27;12.38;;;-4.00;99.90;;;;;;5076057;28;20107;-78
2021/01/31 00:49:48;;;;;;;24.58;12.63;;;-4.10;99.90;;;;;;5074638;28;20025;-78
2021/01/31 00:52:14;;;;;;;33.22;14.43;;;-4.10;99.90;;;;;;5074692;28;20024;-78
2021/01/31 00:54:40;;;;;;;25.42;13.10;;;-4.10;99.90;;;;;;5075725;28;20032;-78
2021/01/31 00:57:06;;;;;;;24.25;13.38;;;-4.10;99.90;;;;;;5075948;28;20543;-78
2021/01/31 00:59:32;;;;;;;32.03;15.57;;;-4.10;99.90;;;;;;5074066;28;20082;-78
2021/01/31 01:01:59;;;;;;;28.10;14.38;;;-4.10;99.90;;;;;;5074470;28;20024;-78
2021/01/31 01:04:25;;;;;;;28.13;14.10;;;-4.10;99.90;;;;;;5075701;28;20020;-78
2021/01/31 01:06:51;;;;;;;30.23;13.75;;;-4.10;99.90;;;;;;5075645;28;20028;-77
2021/01/31 01:09:16;;;;;;;28.77;13.93;;;-4.10;99.90;;;;;;5075553;28;20359;-77
2021/01/31 01:11:42;;;;;;;29.92;13.73;;;-4.10;99.90;;;;;;5075619;28;20032;-78
2021/01/31 01:14:09;;;;;;;31.58;14.23;;;-4.20;99.90;;;;;;5075568;28;20025;-77
2021/01/31 01:16:35;;;;;;;30.73;15.88;;;-4.20;99.90;;;;;;5072871;28;20016;-78
2021/01/31 01:19:03;;;;;;;29.13;13.45;;;-4.30;99.90;;;;;;5055576;28;20063;-78
2021/01/31 01:21:29;;;;;;;24.30;13.65;;;-4.40;99.90;;;;;;5055471;28;20112;-78
2021/01/31 01:23:55;;;;;;;30.65;13.10;;;-4.40;99.90;;;;;;5055465;28;20421;-77
2021/01/31 01:26:25;;;;;;;27.92;13.50;;;-4.50;99.90;;;;;;5070705;28;20029;-77
2021/01/31 01:28:51;;;;;;;28.25;13.00;;;-4.60;99.90;;;;;;5053341;28;20025;-78
2021/01/31 01:31:16;;;;;;;29.85;13.32;;;-4.70;99.90;;;;;;5054642;28;20474;-77
2021/01/31 01:33:42;;;;;;;31.30;13.13;;;-4.70;99.90;;;;;;5055195;28;20417;-77
2021/01/31 01:36:08;;;;;;;29.90;13.23;;;-4.80;99.90;;;;;;5053557;28;20029;-77
2021/01/31 01:38:33;;;;;;;25.83;13.15;;;-4.80;99.90;;;;;;5070369;28;20564;-77
2021/01/31 01:40:59;;;;;;;26.85;12.85;;;-4.90;99.90;;;;;;5055036;28;20025;-77
2021/01/31 01:43:25;;;;;;;28.80;13.65;;;-5.00;99.90;;;;;;5063354;28;20104;-77
2021/01/31 01:46:16;;;;;;;29.20;13.52;;;-5.00;99.90;;;;;;5074473;28;20028;-78
2021/01/31 01:48:43;;;;;;;27.90;12.05;;;-5.10;99.90;;;;;;5073424;28;20367;-78
2021/01/31 01:51:08;;;;;;;25.80;13.50;;;-5.20;99.90;;;;;;5057026;28;20069;-77
2021/01/31 01:53:38;;;;;;;31.65;13.45;;;-5.20;99.90;;;;;;5074794;28;20104;-77
2021/01/31 01:56:24;;;;;;;34.07;15.27;;;-5.30;99.90;;;;;;5074882;28;20029;-77
2021/01/31 01:58:56;;;;;;;23.48;12.60;;;-5.30;99.90;;;;;;5056773;28;20016;-77
2021/01/31 02:01:22;;;;;;;25.98;13.57;;;-5.50;99.90;;;;;;5074866;28;20373;-77
2021/01/31 02:03:54;;;;;;;31.40;13.37;;;-5.40;99.90;;;;;;5074513;28;20381;-77
2021/01/31 02:06:26;;;;;;;28.00;13.03;;;-5.50;99.90;;;;;;5074522;28;20025;-77
2021/01/31 02:08:54;;;;;;;19.52;10.00;;;-5.60;99.90;;;;;;5073274;28;20020;-77
2021/01/31 02:11:22;;;;;;;33.57;12.63;;;-5.70;99.90;;;;;;5074453;28;20024;-80
2021/01/31 02:13:54;;;;;;;22.83;11.03;;;-5.70;99.90;;;;;;5074076;28;20029;-80
2021/01/31 02:16:38;;;;;;;20.40;11.50;;;-5.80;99.90;;;;;;5056408;28;20385;-80
2021/01/31 02:19:29;;;;;;;23.53;11.23;;;-5.80;98.30;;;;;;5071658;28;20024;-80
2021/01/31 02:22:24;;;;;;;22.97;10.53;;;-5.90;96.40;;;;;;5072822;28;20474;-80
2021/01/31 02:25:25;;;;;;;19.83;9.63;;;-6.00;96.20;;;;;;5073485;28;20044;-79
2021/01/31 02:28:18;;;;;;;23.63;11.17;;;-6.10;94.50;;;;;;5053464;28;20051;-80
2021/01/31 02:31:07;;;;;;;29.02;12.32;;;-6.10;93.60;;;;;;5073850;28;20060;-80
2021/01/31 02:33:53;;;;;;;18.97;10.77;;;-6.10;92.00;;;;;;5072185;28;20043;-80
2021/01/31 02:36:39;;;;;;;20.27;10.07;;;-6.20;90.10;;;;;;5073411;28;20017;-80
2021/01/31 02:39:33;;;;;;;21.13;10.80;;;-6.20;89.50;;;;;;5072158;28;20029;-80
2021/01/31 02:42:19;;;;;;;26.97;12.40;;;-6.30;88.20;;;;;;5071376;28;20020;-80
2021/01/31 02:44:56;;;;;;;25.03;13.10;;;-6.30;87.40;;;;;;5070371;28;20035;-80
2021/01/31 02:47:24;;;;;;;11.37;7.80;;;-6.40;85.50;;;;;;5070371;28;20103;-80
2021/01/31 02:49:54;;;;;;;13.50;7.97;;;-6.40;84.70;;;;;;5053718;28;20067;-80
2021/01/31 02:52:45;;;;;;;14.50;10.10;;;-6.50;84.40;;;;;;5070635;28;20489;-80
2021/01/31 02:55:11;;;;;;;13.77;8.30;;;-6.60;84.10;;;;;;5053974;28;20119;-80
2021/01/31 02:58:01;;;;;;;17.07;8.13;;;-6.70;84.80;;;;;;5071096;28;20571;-80
2021/01/31 03:00:35;;;;;;;13.33;8.20;;;-6.70;85.60;;;;;;5065336;28;20048;-80
2021/01/31 03:03:44;;;;;;;16.57;6.43;;;-6.80;85.00;;;;;;5055668;28;20128;-80
2021/01/31 03:06:18;;;;;;;9.00;6.60;;;-6.80;85.00;;;;;;5073324;28;20035;-80
2021/01/31 03:09:08;;;;;;;8.27;6.53;;;-6.80;84.40;;;;;;5072170;28;20489;-80
2021/01/31 03:11:47;;;;;;;13.37;8.00;;;-6.80;84.80;;;;;;5055420;28;20023;-80
2021/01/31 03:14:50;;;;;;;16.10;7.80;;;-6.70;85.00;;;;;;5055382;28;20103;-80
2021/01/31 03:17:38;;;;;;;13.15;6.32;;;-6.80;85.10;;;;;;5038352;28;20039;-80
2021/01/31 03:20:06;;;;;;;11.57;6.80;;;-6.90;84.00;;;;;;5055299;28;20035;-80
2021/01/31 03:22:53;;;;;;;16.43;9.03;;;-7.00;83.30;;;;;;5073251;28;20385;-80
2021/01/31 03:25:29;;;;;;;12.23;7.50;;;-7.10;83.20;;;;;;5055435;28;20028;-80
2021/01/31 03:27:55;;;;;;;12.10;6.53;;;-7.20;84.00;;;;;;5072711;28;20068;-80
2021/01/31 03:30:21;;;;;;;11.73;6.27;;;-7.30;84.00;;;;;;5054088;28;20551;-80
2021/01/31 03:33:39;;;;;;;15.27;7.60;;;-7.40;84.10;;;;;;5073115;28;20493;-80
2021/01/31 03:36:05;;;;;;;37.53;12.10;;;-7.50;84.00;;;;;;5033092;28;20037;-80
2021/01/31 03:38:37;;;;;;;39.20;14.67;;;-7.70;85.30;;;;;;5072972;28;20032;-80
2021/01/31 03:41:09;;;;;;;;;;;-7.80;86.10;;;;;;5073494;28;20024;-80
2021/01/31 03:43:34;;;;;;;24.43;9.93;;;-7.90;87.00;;;;;;5071530;28;19911;-80
2021/01/31 03:46:31;;;;;;;12.50;7.13;;;-8.00;85.10;;;;;;5055000;28;20485;-79
2021/01/31 03:49:12;;;;;;;18.37;8.00;;;-8.20;84.00;;;;;;5071505;28;20044;-79
2021/01/31 03:51:38;;;;;;;14.97;6.80;;;-8.30;85.90;;;;;;5072802;28;20056;-79
2021/01/31 03:54:07;;;;;;;8.67;5.63;;;-8.40;84.80;;;;;;5072017;28;20028;-80
2021/01/31 03:56:56;;;;;;;11.60;5.00;;;-8.60;83.80;;;;;;5054805;28;20024;-79
2021/01/31 03:59:29;;;;;;;12.03;6.23;;;-8.70;83.60;;;;;;5054715;28;20020;-79
2021/01/31 04:01:56;;;;;;;13.83;5.43;;;-8.80;84.10;;;;;;5072721;28;20021;-80
2021/01/31 04:04:33;;;;;;;16.77;7.23;;;-8.90;84.60;;;;;;5070786;28;20393;-80
2021/01/31 04:07:01;;;;;;;15.40;6.93;;;-9.00;85.90;;;;;;5052521;28;20036;-79
2021/01/31 04:09:29;;;;;;;8.63;5.43;;;-9.10;85.40;;;;;;5071480;28;20040;-79
2021/01/31 04:12:08;;;;;;;9.93;6.00;;;-9.20;84.90;;;;;;5054681;28;20027;-79
2021/01/31 04:14:43;;;;;;;10.50;5.47;;;-9.30;85.20;;;;;;5072633;28;20032;-79
2021/01/31 04:17:09;;;;;;;10.60;5.10;;;-9.60;86.00;;;;;;5071400;28;20024;-80
2021/01/31 04:19:35;;;;;;;9.10;6.67;;;-9.70;86.30;;;;;;5071435;28;20466;-79
2021/01/31 04:22:00;;;;;;;10.00;6.03;;;-9.80;86.70;;;;;;5070960;28;20108;-79
2021/01/31 04:24:26;;;;;;;11.83;6.00;;;-9.80;86.20;;;;;;5072746;28;20471;-79
2021/01/31 04:26:51;;;;;;;12.80;6.03;;;-9.90;86.00;;;;;;5072464;28;20029;-79
2021/01/31 04:29:17;;;;;;;11.27;6.73;;;-9.90;85.80;;;;;;5072523;28;20028;-79
2021/01/31 04:31:43;;;;;;;9.27;5.80;;;-9.90;85.80;;;;;;5054499;28;20013;-79
2021/01/31 04:34:09;;;;;;;9.97;6.83;;;-10.00;86.20;;;;;;5072438;28;20024;-79
2021/01/31 04:36:34;;;;;;;13.23;5.73;;;-10.00;86.20;;;;;;5072343;28;20429;-79
2021/01/31 04:39:00;;;;;;;9.60;6.37;;;-10.00;86.30;;;;;;5071042;28;20059;-79
2021/01/31 04:41:33;;;;;;;11.20;6.20;;;-10.00;85.60;;;;;;5054437;28;20078;-79
2021/01/31 04:43:59;;;;;;;;;;;-10.10;85.00;;;;;;5072820;28;20540;-80
2021/01/31 04:46:49;;;;;;;8.10;6.63;;;-10.30;87.60;;;;;;5072390;28;19912;-80
2021/01/31 04:49:27;;;;;;;10.17;5.40;;;-10.40;88.50;;;;;;5072345;28;20020;-80
2021/01/31 04:52:18;;;;;;;11.70;7.03;;;-10.40;87.10;;;;;;5072249;28;20475;-79
2021/01/31 04:55:07;;;;;;;12.87;7.20;;;-10.50;87.00;;;;;;5054250;28;20135;-79
2021/01/31 04:58:04;;;;;;;8.77;6.13;;;-10.50;87.60;;;;;;5070991;28;20020;-79
2021/01/31 05:00:32;;;;;;;20.10;7.10;;;-10.60;87.80;;;;;;5072254;28;20374;-80
2021/01/31 05:03:02;;;;;;;33.10;12.73;;;-10.60;88.30;;;;;;5072825;28;20075;-79
2021/01/31 05:05:36;;;;;;;16.47;7.60;;;-10.60;87.60;;;;;;5057536;28;20028;-79
2021/01/31 05:08:14;;;;;;;13.23;6.80;;;-10.60;86.20;;;;;;5075631;28;20041;-79
2021/01/31 05:10:39;;;;;;;11.03;6.10;;;-10.70;87.20;;;;;;5057746;28;20107;-79
2021/01/31 05:13:35;;;;;;;10.13;6.47;;;-10.80;87.20;;;;;;5075731;28;20056;-79
2021/01/31 05:16:15;;;;;;;9.47;5.93;;;-10.80;86.50;;;;;;5075717;28;20024;-80
2021/01/31 05:18:51;;;;;;;10.47;5.67;;;-11.00;83.30;;;;;;5075446;28;20020;-79
2021/01/31 05:21:20;;;;;;;9.27;6.60;;;-11.00;83.30;;;;;;5075436;28;20109;-80
2021/01/31 05:24:06;;;;;;;8.73;6.00;;;-11.10;83.90;;;;;;5057435;28;20025;-79
2021/01/31 05:26:37;;;;;;;10.43;6.27;;;-11.10;84.10;;;;;;5075426;28;20028;-80
2021/01/31 05:29:07;;;;;;;12.37;7.33;;;-11.20;84.10;;;;;;5075443;28;20016;-79
2021/01/31 05:31:36;;;;;;;13.50;6.87;;;-11.20;84.60;;;;;;5057361;28;20470;-79
2021/01/31 05:34:01;;;;;;;12.57;6.67;;;-11.30;84.80;;;;;;5057238;28;20048;-79
2021/01/31 05:36:33;;;;;;;13.27;6.07;;;-11.30;84.40;;;;;;5057320;28;20481;-79
2021/01/31 05:38:59;;;;;;;13.20;5.97;;;-11.40;81.40;;;;;;5057304;28;20024;-79
2021/01/31 05:41:37;;;;;;;10.87;5.63;;;-11.50;81.10;;;;;;5057138;28;20051;-79
2021/01/31 05:44:05;;;;;;;8.87;5.67;;;-11.50;82.00;;;;;;5075013;28;20021;-79
2021/01/31 05:46:55;;;;;;;12.47;6.77;;;-11.50;82.60;;;;;;5075013;28;20043;-79
2021/01/31 05:49:38;;;;;;;10.57;6.93;;;-11.60;82.70;;;;;;5074930;28;20036;-79
2021/01/31 05:52:10;;;;;;;6.63;4.88;;;-11.60;84.10;;;;;;5075194;28;20021;-79
2021/01/31 05:54:38;;;;;;;7.70;6.45;;;-11.60;84.10;;;;;;5074864;28;20110;-79
2021/01/31 05:57:19;;;;;;;8.53;6.03;;;-11.70;84.00;;;;;;5074875;28;20036;-79
2021/01/31 05:59:44;;;;;;;9.80;5.73;;;-11.70;83.80;;;;;;5056774;28;20020;-79
2021/01/31 06:02:20;;;;;;;10.20;6.27;;;-11.70;82.80;;;;;;5074885;28;20031;-79
2021/01/31 06:04:46;;;;;;;13.90;7.93;;;-11.70;82.40;;;;;;5056609;28;20028;-79
2021/01/31 06:07:18;;;;;;;22.03;8.93;;;-11.80;82.10;;;;;;5073294;28;20046;-78
2021/01/31 06:09:47;;;;;;;21.40;9.67;;;-11.90;83.10;;;;;;5074605;28;20055;-78
2021/01/31 06:12:21;;;;;;;14.03;6.47;;;-11.90;83.90;;;;;;5056619;28;20255;-79
2021/01/31 06:15:09;;;;;;;10.33;7.80;;;-12.00;81.30;;;;;;5072672;28;20059;-79
2021/01/31 06:17:36;;;;;;;11.33;6.90;;;-12.10;80.00;;;;;;5072780;28;20025;-79
2021/01/31 06:20:24;;;;;;;12.17;5.93;;;-12.10;81.10;;;;;;5074384;28;20074;-79
2021/01/31 06:22:50;;;;;;;6.60;5.63;;;-12.10;81.50;;;;;;5056183;28;20027;-79
2021/01/31 06:25:35;;;;;;;13.70;7.07;;;-12.10;81.20;;;;;;5055475;28;20040;-79
2021/01/31 06:28:09;;;;;;;21.33;7.83;;;-12.20;81.40;;;;;;5056182;28;20028;-79
2021/01/31 06:30:38;;;;;;;13.20;7.37;;;-12.20;81.80;;;;;;5072750;28;20036;-79
2021/01/31 06:33:04;;;;;;;12.70;7.93;;;-12.10;82.20;;;;;;5074214;28;20035;-79
2021/01/31 06:35:30;;;;;;;18.50;9.20;;;-12.20;81.80;;;;;;5074045;28;20474;-79
2021/01/31 06:38:01;;;;;;;17.60;8.07;;;-12.20;82.00;;;;;;5056124;28;20085;-79
2021/01/31 06:40:48;;;;;;;27.60;10.73;;;-12.10;82.40;;;;;;5073870;28;20035;-79
2021/01/31 06:43:19;;;;;;;24.43;10.20;;;-12.10;82.20;;;;;;5073932;28;20474;-79
2021/01/31 06:45:57;;;;;;;20.10;9.17;;;-12.10;81.80;;;;;;5069998;28;20025;-80
2021/01/31 06:48:48;;;;;;;20.10;10.40;;;-12.10;81.00;;;;;;5067934;28;20020;-79
2021/01/31 06:51:32;;;;;;;12.60;9.17;;;-12.10;81.70;;;;;;5068440;28;20115;-80
2021/01/31 06:54:18;;;;;;;14.00;8.17;;;-12.10;82.70;;;;;;5067796;28;20105;-79
2021/01/31 06:57:02;;;;;;;19.73;8.43;;;-12.00;81.40;;;;;;5067228;28;20029;-80
2021/01/31 06:59:47;;;;;;;37.53;13.40;;;-11.90;81.70;;;;;;5067257;28;20024;-79
2021/01/31 07:02:30;;;;;;;33.60;12.40;;;-11.90;81.90;;;;;;5073016;28;20385;-79
2021/01/31 07:05:02;;;;;;;35.83;13.97;;;-11.90;82.70;;;;;;5071515;28;20032;-80
2021/01/31 07:07:45;;;;;;;38.78;14.77;;;-11.80;83.20;;;;;;5071415;28;20037;-79
2021/01/31 07:10:26;;;;;;;28.03;14.17;;;-11.70;84.00;;;;;;5068356;28;20056;-79
2021/01/31 07:13:12;;;;;;;34.03;11.87;;;-11.60;83.60;;;;;;5070917;28;20075;-79
2021/01/31 07:16:01;;;;;;;34.07;14.50;;;-11.60;84.00;;;;;;5056424;28;20047;-80
2021/01/31 07:18:32;;;;;;;30.50;12.90;;;-11.40;84.30;;;;;;5045225;28;20059;-79
2021/01/31 07:20:59;;;;;;;38.13;14.90;;;-11.30;84.30;;;;;;5072068;28;20017;-79
2021/01/31 07:23:35;;;;;;;44.37;15.00;;;-11.20;84.10;;;;;;5065900;28;20466;-79
2021/01/31 07:26:19;;;;;;;54.23;17.77;;;-11.00;83.80;;;;;;5061607;28;20033;-79
2021/01/31 07:28:45;;;;;;;65.73;21.33;;;-10.90;83.40;;;;;;5061563;28;20048;-79
2021/01/31 07:31:19;;;;;;;46.53;16.90;;;-10.70;83.70;;;;;;5063868;28;20064;-79
2021/01/31 07:34:00;;;;;;;38.33;15.00;;;-10.60;82.90;;;;;;5050404;28;20020;-80
2021/01/31 07:36:32;;;;;;;42.00;18.20;;;-10.40;82.60;;;;;;5049314;28;20019;-79
2021/01/31 07:39:14;;;;;;;;;;;-10.30;82.80;;;;;;5060116;28;20523;-79
2021/01/31 07:41:50;;;;;;;49.07;17.00;;;-10.10;82.90;;;;;;5061726;28;19913;-79
2021/01/31 07:44:19;;;;;;;90.27;28.70;;;-9.90;83.20;;;;;;5057093;28;20017;-80
2021/01/31 07:46:45;;;;;;;100.77;33.90;;;-9.70;83.30;;;;;;5064352;28;20056;-79
2021/01/31 07:49:11;;;;;;;137.43;41.97;;;-9.50;82.80;;;;;;5053148;28;20017;-79
2021/01/31 07:51:38;;;;;;;147.77;45.53;;;-9.30;82.60;;;;;;5065853;28;20031;-79
2021/01/31 07:54:28;;;;;;;131.70;38.47;;;-9.10;82.00;;;;;;5067357;28;20018;-79
2021/01/31 07:56:56;;;;;;;124.67;43.27;;;-8.90;81.50;;;;;;5047336;28;20023;-79
2021/01/31 07:59:37;;;;;;;146.90;50.70;;;-8.70;82.00;;;;;;5054155;28;20027;-80
2021/01/31 08:02:03;;;;;;;151.90;46.87;;;-8.50;81.80;;;;;;5065378;28;20020;-80
2021/01/31 08:04:35;;;;;;;179.97;56.43;;;-8.30;81.40;;;;;;5062101;28;20040;-80
2021/01/31 08:07:04;;;;;;;160.35;52.90;;;-8.10;82.40;;;;;;5060472;28;20082;-79
2021/01/31 08:09:30;;;;;;;137.33;49.53;;;-7.80;83.30;;;;;;5034533;28;20021;-79
2021/01/31 08:12:04;;;;;;;213.40;74.13;;;-7.60;83.40;;;;;;5056088;28;20086;-79
2021/01/31 08:15:07;;;;;;;185.70;68.20;;;-7.50;82.40;;;;;;5061304;28;20360;-79
2021/01/31 08:17:46;;;;;;;197.20;65.13;;;-7.40;78.90;;;;;;5065484;28;20025;-79
2021/01/31 08:20:20;;;;;;;168.97;58.67;;;-7.20;78.10;;;;;;5063225;28;20754;-79
2021/01/31 08:22:46;;;;;;;195.73;64.47;;;-7.10;78.20;;;;;;5064383;28;20039;-80
2021/01/31 08:25:12;;;;;;;149.83;56.50;;;-7.00;77.70;;;;;;5054707;28;20036;-79
2021/01/31 08:27:41;;;;;;;157.37;53.37;;;-6.90;77.40;;;;;;5068668;28;20135;-80
2021/01/31 08:30:18;;;;;;;151.37;55.13;;;-6.90;76.90;;;;;;5066792;28;20508;-79
2021/01/31 08:33:01;;;;;;;149.07;55.83;;;-6.70;77.00;;;;;;5058451;28;20048;-79
2021/01/31 08:35:42;;;;;;;153.23;56.73;;;-6.60;77.60;;;;;;5067349;28;20031;-79
2021/01/31 08:38:20;;;;;;;206.67;72.67;;;-6.50;78.90;;;;;;5068664;28;20417;-80
2021/01/31 08:41:12;;;;;;;202.33;69.77;;;-6.30;79.50;;;;;;5068397;28;20120;-80
2021/01/31 08:43:43;;;;;;;158.40;63.93;;;-6.30;79.60;;;;;;5053600;28;20478;-80
2021/01/31 08:46:18;;;;;;;157.23;59.43;;;-6.20;80.80;;;;;;5065025;28;20421;-80
2021/01/31 08:48:56;;;;;;;109.53;43.97;;;-6.10;82.10;;;;;;5052980;28;20622;-80
2021/01/31 08:51:25;;;;;;;117.53;41.47;;;-6.00;82.90;;;;;;5067689;28;20020;-81
2021/01/31 08:54:10;;;;;;;89.93;35.93;;;-5.90;83.60;;;;;;5054946;28;20101;-80
2021/01/31 08:56:54;;;;;;;125.20;40.53;;;-5.70;83.20;;;;;;5047314;28;20600;-80
2021/01/31 08:59:25;;;;;;;96.23;35.13;;;-5.60;82.00;;;;;;5064936;28;20111;-80
2021/01/31 09:02:18;;;;;;;55.03;21.93;;;-5.50;82.00;;;;;;5060895;28;20439;-80
2021/01/31 09:05:11;;;;;;;33.75;17.15;;;-5.40;81.30;;;;;;5051090;28;20029;-80
2021/01/31 09:07:39;;;;;;;44.10;18.30;;;-5.30;80.60;;;;;;5065482;28;20560;-80
2021/01/31 09:10:12;;;;;;;42.67;16.00;;;-5.20;80.50;;;;;;5054868;28;20012;-78
2021/01/31 09:12:38;;;;;;;32.58;17.85;;;-5.20;80.10;;;;;;5061979;28;20110;-78
2021/01/31 09:15:09;;;;;;;58.60;24.20;;;-5.20;79.90;;;;;;5059549;28;20474;-78
2021/01/31 09:17:35;;;;;;;54.80;20.90;;;-5.10;80.60;;;;;;5057622;28;20509;-78
2021/01/31 09:20:08;;;;;;;60.43;22.67;;;-5.10;79.50;;;;;;5050599;28;20020;-81
2021/01/31 09:22:37;;;;;;;77.45;28.58;;;-4.90;79.20;;;;;;5063325;28;20017;-80
2021/01/31 09:25:05;;;;;;;87.33;34.37;;;-4.80;78.20;;;;;;5068157;28;20366;-78
2021/01/31 09:27:32;;;;;;;58.73;25.67;;;-4.60;78.10;;;;;;5066836;28;20029;-80
2021/01/31 09:30:02;;;;;;;128.88;46.38;;;-4.50;77.30;;;;;;5052372;28;20478;-78
2021/01/31 09:32:40;;;;;;;54.25;21.95;;;-4.40;75.60;;;;;;5065536;28;20031;-80
2021/01/31 09:35:09;;;;;;;60.08;23.75;;;-4.30;74.30;;;;;;5050196;28;20509;-78
2021/01/31 09:37:35;;;;;;;77.15;25.38;;;-4.30;72.90;;;;;;5065126;28;20017;-78
2021/01/31 09:40:04;;;;;;;67.72;22.77;;;-4.30;72.50;;;;;;5065233;28;20033;-78
2021/01/31 09:42:32;;;;;;;39.42;15.40;;;-4.20;72.60;;;;;;5058407;28;20439;-77
2021/01/31 09:45:02;;;;;;;55.70;27.05;;;-4.20;72.00;;;;;;5061812;28;20033;-78
2021/01/31 09:47:29;;;;;;;42.38;21.38;;;-4.20;71.90;;;;;;5060990;28;20043;-78
2021/01/31 09:50:03;;;;;;;28.27;13.00;;;-4.10;72.90;;;;;;5042952;28;20025;-78
2021/01/31 09:52:29;;;;;;;26.83;13.02;;;-4.10;72.40;;;;;;5066033;28;20017;-78
2021/01/31 09:54:55;;;;;;;22.70;11.70;;;-4.10;71.50;;;;;;5069693;28;20032;-78
2021/01/31 09:57:27;;;;;;;25.60;11.57;;;-4.00;71.90;;;;;;5070525;28;20093;-78
2021/01/31 10:00:10;;;;;;;28.27;12.60;;;-3.90;71.80;;;;;;5060167;28;20074;-78
2021/01/31 10:02:37;;;;;;;23.85;12.57;;;-3.90;71.10;;;;;;5063242;28;20047;-78
2021/01/31 10:05:09;;;;;;;28.42;13.25;;;-3.80;70.50;;;;;;5050258;28;20032;-78
2021/01/31 10:07:44;;;;;;;32.67;13.95;;;-3.80;70.60;;;;;;5062638;28;20032;-78
2021/01/31 10:10:32;;;;;;;30.08;12.20;;;-3.70;70.60;;;;;;5062820;28;20032;-78
2021/01/31 10:13:19;;;;;;;28.58;15.18;;;-3.50;71.00;;;;;;5061053;28;20029;-78
2021/01/31 10:15:58;;;;;;;37.60;16.67;;;-3.50;70.70;;;;;;5061155;28;20028;-78
2021/01/31 10:18:40;;;;;;;44.42;19.70;;;-3.40;70.30;;;;;;5067823;28;20036;-78
2021/01/31 10:21:27;;;;;;;37.45;17.70;;;-3.30;68.10;;;;;;5069451;28;20434;-78
2021/01/31 10:24:04;;;;;;;34.50;13.93;;;-3.40;66.00;;;;;;5064260;28;20167;-80
2021/01/31 10:26:31;;;;;;;16.83;9.98;;;-3.20;67.10;;;;;;5066774;28;20080;-78
2021/01/31 10:29:04;;;;;;;11.98;6.47;;;-3.20;64.10;;;;;;5060959;28;20035;-79
2021/01/31 10:31:39;;;;;;;23.10;10.82;;;-3.30;61.70;;;;;;5062154;28;20069;-78
2021/01/31 10:34:07;;;;;;;17.58;7.93;;;-3.10;62.70;;;;;;5043557;28;20013;-80
2021/01/31 10:36:37;;;;;;;22.50;9.55;;;-3.20;61.90;;;;;;5048085;28;20029;-78
2021/01/31 10:39:08;;;;;;;21.20;9.68;;;-3.20;62.10;;;;;;5062905;28;20051;-77
2021/01/31 10:41:34;;;;;;;74.82;27.42;;;-3.20;63.80;;;;;;5060915;28;20047;-78
2021/01/31 10:44:06;;;;;;;299.90;95.38;;;-3.10;66.20;;;;;;5057020;28;20106;-78
2021/01/31 10:46:33;;;;;;;54.40;19.38;;;-3.00;65.20;;;;;;5059393;28;20061;-79
2021/01/31 10:48:59;;;;;;;21.10;9.10;;;-2.90;63.60;;;;;;5061755;28;20099;-79
2021/01/31 10:51:32;;;;;;;21.98;9.20;;;-3.00;62.30;;;;;;5065893;28;20112;-79
2021/01/31 10:53:59;;;;;;;23.58;11.43;;;-3.00;61.70;;;;;;5046069;28;20029;-79
2021/01/31 10:56:25;;;;;;;28.95;11.80;;;-3.00;63.80;;;;;;5057906;28;20032;-79
2021/01/31 10:58:51;;;;;;;31.90;13.32;;;-3.00;63.30;;;;;;5043937;28;20021;-79
2021/01/31 11:01:17;;;;;;;25.35;12.48;;;-2.90;62.60;;;;;;5056137;28;20028;-78
2021/01/31 11:03:43;;;;;;;32.45;13.48;;;-2.90;62.20;;;;;;5064214;28;20025;-78
2021/01/31 11:06:09;;;;;;;26.92;12.57;;;-2.80;62.70;;;;;;5059647;28;20428;-78
2021/01/31 11:08:34;;;;;;;31.48;11.40;;;-2.90;62.20;;;;;;5056564;28;20494;-81
2021/01/31 11:11:00;;;;;;;26.33;12.77;;;-2.80;62.90;;;;;;5043010;28;20028;-82
2021/01/31 11:13:26;;;;;;;27.88;13.23;;;-2.80;61.60;;;;;;5043753;28;20550;-79
2021/01/31 11:15:52;;;;;;;28.83;12.30;;;-2.80;61.50;;;;;;5041339;28;20078;-79
2021/01/31 11:18:18;;;;;;;34.40;15.98;;;-2.80;61.50;;;;;;5058936;28;20032;-79
2021/01/31 11:20:44;;;;;;;32.88;16.95;;;-2.70;61.20;;;;;;5063700;28;20032;-79
2021/01/31 11:23:10;;;;;;;36.97;15.90;;;-2.80;61.40;;;;;;5068168;28;20027;-79
2021/01/31 11:25:36;;;;;;;40.22;18.58;;;-2.80;61.10;;;;;;5050987;28;20030;-79
2021/01/31 11:28:02;;;;;;;69.95;28.45;;;-2.80;60.80;;;;;;5048717;28;20044;-79
2021/01/31 11:30:29;;;;;;;51.22;21.30;;;-2.80;61.20;;;;;;5052075;28;20025;-79
2021/01/31 11:32:55;;;;;;;34.35;15.73;;;-2.70;61.70;;;;;;5071998;28;20168;-79
2021/01/31 11:35:22;;;;;;;27.05;12.00;;;-2.70;61.50;;;;;;5053674;28;20035;-79
2021/01/31 11:37:47;;;;;;;31.90;14.48;;;-2.60;62.00;;;;;;5070436;28;20017;-79
2021/01/31 11:40:13;;;;;;;30.75;16.10;;;-2.50;62.30;;;;;;5067235;28;20029;-80
2021/01/31 11:42:40;;;;;;;44.88;19.50;;;-2.70;61.30;;;;;;5071704;28;20028;-79
2021/01/31 11:45:06;;;;;;;35.33;17.38;;;-2.60;61.60;;;;;;5054174;28;20016;-81
2021/01/31 11:47:34;;;;;;;35.35;15.95;;;-2.50;62.00;;;;;;5051239;28;20151;-81
2021/01/31 11:50:00;;;;;;;53.72;19.80;;;-2.50;61.80;;;;;;5071787;28;20070;-79
2021/01/31 11:52:26;;;;;;;33.72;15.95;;;-2.50;62.30;;;;;;5070593;28;20048;-79
2021/01/31 11:54:52;;;;;;;28.35;13.73;;;-2.50;62.80;;;;;;5069975;28;20073;-80
2021/01/31 11:57:18;;;;;;;33.90;15.95;;;-2.40;62.10;;;;;;5070794;28;20020;-79
2021/01/31 11:59:44;;;;;;;33.20;14.98;;;-2.50;61.60;;;;;;5071552;28;20035;-79
2021/01/31 12:02:09;;;;;;;30.52;13.82;;;-2.50;63.00;;;;;;5053548;28;20020;-79
2021/01/31 12:04:36;;;;;;;41.80;18.83;;;-2.50;62.60;;;;;;5068737;28;20044;-78
2021/01/31 12:07:02;;;;;;;32.92;15.95;;;-2.40;63.10;;;;;;5067105;28;20047;-79
2021/01/31 12:09:27;;;;;;;48.55;19.48;;;-2.40;61.80;;;;;;5063560;28;20024;-79
2021/01/31 12:11:53;;;;;;;33.03;16.80;;;-2.40;61.60;;;;;;5045711;28;20029;-79
2021/01/31 12:14:19;;;;;;;30.23;16.00;;;-2.50;60.60;;;;;;5059472;28;20100;-78
2021/01/31 12:16:45;;;;;;;37.15;18.30;;;-2.60;60.80;;;;;;5056385;28;20024;-78
2021/01/31 12:19:10;;;;;;;75.53;35.40;;;-2.60;61.40;;;;;;5066091;28;20024;-79
2021/01/31 12:21:36;;;;;;;69.80;30.20;;;-2.60;60.90;;;;;;5068849;28;20100;-79
2021/01/31 12:24:02;;;;;;;36.50;15.13;;;-2.70;60.60;;;;;;5062735;28;20045;-79
2021/01/31 12:26:28;;;;;;;28.73;12.80;;;-2.70;60.80;;;;;;5047372;28;20047;-79
2021/01/31 12:28:54;;;;;;;27.77;11.07;;;-2.60;60.70;;;;;;5060732;28;20090;-79
2021/01/31 12:31:19;;;;;;;28.55;12.88;;;-2.70;60.30;;;;;;5060435;28;20445;-81
2021/01/31 12:33:45;;;;;;;55.78;23.92;;;-2.70;60.30;;;;;;5043858;28;20062;-80
2021/01/31 12:36:10;;;;;;;61.97;26.00;;;-2.70;61.20;;;;;;5061865;28;20009;-81
2021/01/31 12:38:36;;;;;;;43.25;18.20;;;-2.70;61.40;;;;;;5059711;28;20033;-80
2021/01/31 12:41:02;;;;;;;29.23;12.75;;;-2.70;61.20;;;;;;5061333;28;20103;-80
2021/01/31 12:43:28;;;;;;;43.72;18.00;;;-2.60;61.00;;;;;;5044965;28;20082;-80
2021/01/31 12:45:53;;;;;;;26.17;12.90;;;-2.60;60.50;;;;;;5059349;28;20929;-80
2021/01/31 12:48:19;;;;;;;26.90;11.73;;;-2.50;61.10;;;;;;5046339;28;20032;-80
2021/01/31 12:50:45;;;;;;;42.67;21.50;;;-2.50;60.80;;;;;;5060703;28;20017;-80
2021/01/31 12:53:10;;;;;;;29.60;13.43;;;-2.40;62.10;;;;;;5060468;28;20074;-81
2021/01/31 12:55:37;;;;;;;27.20;13.30;;;-2.40;61.00;;;;;;5044387;28;20434;-81